Time;durP1;ratioP1;P1;durP2;ratioP2;P2;SDS_P1;SDS_P2;PMS_P1;PMS_P2;Temp;Humidity;BMP_temperature;BMP_pressure;BME280_temperature;BME280_humidity;BME280_pressure;Samples;Min_cycle;Max_cycle;Signal;HPM_P1;HPM_P2
2021/09/21 00:01:18;;;;;;;13.17;8.40;;;;;;;;;;5020590;28;20233;-74
2021/09/21 00:03:43;;;;;;;14.13;8.30;;;;;;;;;;5034864;28;20612;-75
2021/09/21 00:06:08;;;;;;;12.83;8.27;;;;;;;;;;5021551;28;20197;-74
2021/09/21 00:08:35;;;;;;;12.10;8.30;;;;;;;;;;5024262;28;20270;-74
2021/09/21 00:11:02;;;;;;;12.10;8.73;;;;;;;;;;5026831;28;20601;-74
2021/09/21 00:13:28;;;;;;;16.53;9.33;;;;;;;;;;5018255;28;20198;-74
2021/09/21 00:15:55;;;;;;;14.03;9.33;;;;;;;;;;5032370;28;20275;-74
2021/09/21 00:18:20;;;;;;;11.37;8.63;;;;;;;;;;5021192;28;20197;-74
2021/09/21 00:20:46;;;;;;;13.37;8.80;;;;;;;;;;5030293;28;20652;-74
2021/09/21 00:23:11;;;;;;;14.07;9.17;;;;;;;;;;5025088;28;20225;-74
2021/09/21 00:25:37;;;;;;;13.80;9.00;;;;;;;;;;5027409;28;20193;-74
2021/09/21 00:28:03;;;;;;;12.50;8.43;;;;;;;;;;5024392;28;20197;-74
2021/09/21 00:30:29;;;;;;;16.40;9.60;;;;;;;;;;5023547;28;20198;-74
2021/09/21 00:33:01;;;;;;;14.10;8.80;;;;;;;;;;5019806;28;20554;-74
2021/09/21 00:35:28;;;;;;;17.50;9.63;;;;;;;;;;5025109;28;21175;-74
2021/09/21 00:37:53;;;;;;;15.23;9.77;;;;;;;;;;5016361;28;21220;-74
2021/09/21 00:40:18;;;;;;;13.60;9.77;;;;;;;;;;5027142;28;20190;-74
2021/09/21 00:42:45;;;;;;;15.67;9.87;;;;;;;;;;5026559;28;20185;-74
2021/09/21 00:45:16;;;;;;;15.57;10.40;;;;;;;;;;5018052;28;20190;-74
2021/09/21 00:47:41;;;;;;;13.57;8.83;;;;;;;;;;5027672;28;20182;-74
2021/09/21 00:50:07;;;;;;;16.17;9.63;;;;;;;;;;5033606;28;20196;-74
2021/09/21 00:52:32;;;;;;;11.73;8.83;;;;;;;;;;5025380;28;20274;-73
2021/09/21 00:54:58;;;;;;;14.50;9.57;;;;;;;;;;5017433;28;20210;-73
2021/09/21 00:57:24;;;;;;;14.60;9.80;;;;;;;;;;5027032;28;20837;-73
2021/09/21 00:59:49;;;;;;;21.20;10.30;;;;;;;;;;5014949;28;20204;-74
2021/09/21 01:02:15;;;;;;;13.10;9.17;;;;;;;;;;5025874;28;20476;-74
2021/09/21 01:04:40;;;;;;;17.37;9.77;;;;;;;;;;5018372;28;20251;-74
2021/09/21 01:07:05;;;;;;;14.57;9.83;;;;;;;;;;5026200;28;20208;-76
2021/09/21 01:09:31;;;;;;;17.20;9.97;;;;;;;;;;5019656;28;20204;-74
2021/09/21 01:11:58;;;;;;;15.67;9.53;;;;;;;;;;5022151;28;20274;-74
2021/09/21 01:14:25;;;;;;;15.37;9.63;;;;;;;;;;5029152;28;20197;-74
2021/09/21 01:16:52;;;;;;;15.17;9.17;;;;;;;;;;5018085;28;20213;-74
2021/09/21 01:19:19;;;;;;;15.17;9.70;;;;;;;;;;5025823;28;20247;-74
2021/09/21 01:21:48;;;;;;;15.70;9.13;;;;;;;;;;5018228;28;20201;-74
2021/09/21 01:24:16;;;;;;;12.83;9.27;;;;;;;;;;5028145;28;20177;-75
2021/09/21 01:26:42;;;;;;;12.50;9.23;;;;;;;;;;5018253;28;20203;-74
2021/09/21 01:29:07;;;;;;;16.33;9.33;;;;;;;;;;5024804;28;20556;-75
2021/09/21 01:31:33;;;;;;;13.53;9.00;;;;;;;;;;5018275;28;20216;-74
2021/09/21 01:33:59;;;;;;;12.93;8.93;;;;;;;;;;5025765;28;20217;-74
2021/09/21 01:36:26;;;;;;;12.57;8.90;;;;;;;;;;5017769;28;20243;-74
2021/09/21 01:38:52;;;;;;;13.90;9.50;;;;;;;;;;5022820;28;20687;-74
2021/09/21 01:41:17;;;;;;;13.17;9.20;;;;;;;;;;5016412;28;20193;-74
2021/09/21 01:43:44;;;;;;;13.37;9.73;;;;;;;;;;5024660;28;20186;-74
2021/09/21 01:46:11;;;;;;;13.23;9.47;;;;;;;;;;5022702;28;20712;-74
2021/09/21 01:48:37;;;;;;;15.00;9.20;;;;;;;;;;5016432;28;20688;-74
2021/09/21 01:51:11;;;;;;;15.47;9.03;;;;;;;;;;5026688;28;20194;-74
2021/09/21 01:54:01;;;;;;;16.63;10.20;;;;;;;;;;5017247;28;20185;-74
2021/09/21 01:59:10;;;;;;;14.97;9.93;;;;;;;;;;5015652;28;20267;-74
2021/09/21 02:01:36;;;;;;;12.50;8.97;;;;;;;;;;5022544;28;20229;-74
2021/09/21 02:04:05;;;;;;;12.80;8.83;;;;;;;;;;5013963;28;20224;-74
2021/09/21 02:06:38;;;;;;;16.67;8.80;;;;;;;;;;5022961;28;20204;-74
2021/09/21 02:09:07;;;;;;;15.73;9.37;;;;;;;;;;5015825;28;20189;-74
2021/09/21 02:11:33;;;;;;;13.33;9.30;;;;;;;;;;5020317;28;20200;-74
2021/09/21 02:14:00;;;;;;;15.50;9.67;;;;;;;;;;5016388;28;20213;-74
2021/09/21 02:16:27;;;;;;;12.57;9.63;;;;;;;;;;5021987;28;20286;-74
2021/09/21 02:18:53;;;;;;;15.57;9.60;;;;;;;;;;5019880;28;20201;-74
2021/09/21 02:21:19;;;;;;;15.27;9.53;;;;;;;;;;5024499;28;20194;-74
2021/09/21 02:23:46;;;;;;;14.30;9.53;;;;;;;;;;5015071;28;20649;-74
2021/09/21 02:26:11;;;;;;;13.27;9.03;;;;;;;;;;5041408;28;20392;-74
2021/09/21 02:28:38;;;;;;;16.30;10.17;;;;;;;;;;5020536;28;20265;-74
2021/09/21 02:31:03;;;;;;;14.63;9.90;;;;;;;;;;5021789;28;20284;-74
2021/09/21 02:33:29;;;;;;;16.17;10.40;;;;;;;;;;5024357;28;20296;-74
2021/09/21 02:35:54;;;;;;;11.97;10.13;;;;;;;;;;5016005;28;20220;-74
2021/09/21 02:38:20;;;;;;;17.15;9.90;;;;;;;;;;5025776;28;20702;-75
2021/09/21 02:40:45;;;;;;;15.20;9.77;;;;;;;;;;5014867;28;20580;-74
2021/09/21 02:43:11;;;;;;;15.27;10.87;;;;;;;;;;5026346;28;20261;-75
2021/09/21 02:45:36;;;;;;;17.10;10.17;;;;;;;;;;5008950;28;20182;-74
2021/09/21 02:48:02;;;;;;;12.63;9.67;;;;;;;;;;5025183;28;20184;-74
2021/09/21 02:50:27;;;;;;;14.33;9.67;;;;;;;;;;5016293;28;20201;-74
2021/09/21 02:52:53;;;;;;;15.02;10.30;;;;;;;;;;5028335;28;20224;-75
2021/09/21 02:55:19;;;;;;;15.30;10.10;;;;;;;;;;5019784;28;20350;-74
2021/09/21 02:57:44;;;;;;;14.48;10.38;;;;;;;;;;5027106;28;20194;-75
2021/09/21 03:00:11;;;;;;;14.33;10.37;;;;;;;;;;5029604;28;20205;-74
2021/09/21 03:02:37;;;;;;;14.50;10.02;;;;;;;;;;5018307;28;20218;-75
2021/09/21 03:05:09;;;;;;;14.73;10.30;;;;;;;;;;5028280;28;20186;-75
2021/09/21 03:07:43;;;;;;;15.57;10.90;;;;;;;;;;5021280;28;20662;-75
2021/09/21 03:13:01;;;;;;;15.17;10.90;;;;;;;;;;5022274;28;20209;-74
2021/09/21 03:18:11;;;;;;;15.53;11.17;;;;;;;;;;5020396;28;20215;-75
2021/09/21 03:20:36;;;;;;;13.05;10.30;;;;;;;;;;5025753;28;20186;-74
2021/09/21 03:23:02;;;;;;;15.57;11.43;;;;;;;;;;5022622;28;20204;-75
2021/09/21 03:25:27;;;;;;;14.68;10.70;;;;;;;;;;5025485;28;20549;-74
2021/09/21 03:27:52;;;;;;;14.88;10.27;;;;;;;;;;5022303;28;20262;-75
2021/09/21 03:30:18;;;;;;;13.38;10.60;;;;;;;;;;5026131;28;20336;-75
2021/09/21 03:32:43;;;;;;;14.32;10.07;;;;;;;;;;5020133;28;20232;-75
2021/09/21 03:35:09;;;;;;;15.63;11.13;;;;;;;;;;5029155;28;20217;-75
2021/09/21 03:37:35;;;;;;;15.88;11.30;;;;;;;;;;5020631;28;20985;-75
2021/09/21 03:40:01;;;;;;;17.80;11.93;;;;;;;;;;5028904;28;20549;-75
2021/09/21 03:42:26;;;;;;;18.77;12.30;;;;;;;;;;5025528;28;20202;-75
2021/09/21 03:44:52;;;;;;;19.85;11.52;;;;;;;;;;5018011;28;20178;-75
2021/09/21 03:47:17;;;;;;;18.65;11.90;;;;;;;;;;5031633;28;20182;-75
2021/09/21 03:49:43;;;;;;;16.27;10.95;;;;;;;;;;5018339;28;20226;-75
2021/09/21 03:52:09;;;;;;;16.38;11.75;;;;;;;;;;5025874;28;20216;-75
2021/09/21 03:54:34;;;;;;;16.75;11.57;;;;;;;;;;5018998;28;20297;-75
2021/09/21 03:57:00;;;;;;;15.30;11.23;;;;;;;;;;5026138;28;21054;-75
2021/09/21 03:59:26;;;;;;;17.57;12.13;;;;;;;;;;5019889;28;20641;-74
2021/09/21 04:01:52;;;;;;;18.45;12.73;;;;;;;;;;5025870;28;20229;-75
2021/09/21 04:04:18;;;;;;;18.30;12.52;;;;;;;;;;5015924;28;20222;-75
2021/09/21 04:06:43;;;;;;;17.23;12.30;;;;;;;;;;5028296;28;20350;-75
2021/09/21 04:09:09;;;;;;;18.55;12.23;;;;;;;;;;5019255;28;20193;-75
2021/09/21 04:11:34;;;;;;;16.27;11.80;;;;;;;;;;5028857;28;20240;-75
2021/09/21 04:14:00;;;;;;;16.63;12.35;;;;;;;;;;5027574;28;20182;-75
2021/09/21 04:16:28;;;;;;;16.23;12.13;;;;;;;;;;5020367;28;20268;-75
2021/09/21 04:18:54;;;;;;;16.92;11.55;;;;;;;;;;5025433;28;20181;-75
2021/09/21 04:21:20;;;;;;;17.38;11.80;;;;;;;;;;5018843;28;20193;-75
2021/09/21 04:23:45;;;;;;;16.10;12.35;;;;;;;;;;5025257;28;20190;-75
2021/09/21 04:26:10;;;;;;;20.52;12.35;;;;;;;;;;5017862;28;20190;-75
2021/09/21 04:28:38;;;;;;;17.73;12.18;;;;;;;;;;5027169;28;20239;-75
2021/09/21 04:31:09;;;;;;;18.80;12.53;;;;;;;;;;5015769;28;20181;-75
2021/09/21 04:33:36;;;;;;;20.53;12.70;;;;;;;;;;5026662;28;20182;-75
2021/09/21 04:36:03;;;;;;;18.37;12.47;;;;;;;;;;5012048;28;20209;-74
2021/09/21 04:38:29;;;;;;;18.83;11.33;;;;;;;;;;5023518;28;20213;-74
2021/09/21 04:40:54;;;;;;;18.27;11.75;;;;;;;;;;5012951;28;21466;-74
2021/09/21 04:43:19;;;;;;;16.17;12.63;;;;;;;;;;5021894;28;20186;-74
2021/09/21 04:45:45;;;;;;;17.23;12.05;;;;;;;;;;5022907;28;20200;-75
2021/09/21 04:48:10;;;;;;;15.00;11.73;;;;;;;;;;5014988;28;21554;-74
2021/09/21 04:50:36;;;;;;;16.02;11.73;;;;;;;;;;5022196;28;20194;-76
2021/09/21 04:53:01;;;;;;;15.50;11.65;;;;;;;;;;5015502;28;20690;-74
2021/09/21 04:55:27;;;;;;;16.80;12.07;;;;;;;;;;5022391;28;20700;-74
2021/09/21 04:57:52;;;;;;;15.33;11.97;;;;;;;;;;5012947;28;20205;-74
2021/09/21 05:00:18;;;;;;;19.75;12.60;;;;;;;;;;5022288;28;20661;-74
2021/09/21 05:02:43;;;;;;;15.82;11.82;;;;;;;;;;5013092;28;20305;-74
2021/09/21 05:05:09;;;;;;;17.90;12.23;;;;;;;;;;5022482;28;20646;-75
2021/09/21 05:07:35;;;;;;;15.57;11.60;;;;;;;;;;5014642;28;20195;-74
2021/09/21 05:10:01;;;;;;;18.00;12.47;;;;;;;;;;5021709;28;20197;-74
2021/09/21 05:12:26;;;;;;;16.73;11.85;;;;;;;;;;5015696;28;20193;-74
2021/09/21 05:14:52;;;;;;;20.27;13.37;;;;;;;;;;5021679;28;20214;-74
2021/09/21 05:17:17;;;;;;;17.88;12.23;;;;;;;;;;5024280;28;20192;-74
2021/09/21 05:19:42;;;;;;;18.88;11.85;;;;;;;;;;5013915;28;20185;-74
2021/09/21 05:22:08;;;;;;;16.45;12.77;;;;;;;;;;5023982;28;20205;-74
2021/09/21 05:24:33;;;;;;;21.02;11.82;;;;;;;;;;5019249;28;20185;-74
2021/09/21 05:26:58;;;;;;;17.08;12.48;;;;;;;;;;5024075;28;22838;-74
2021/09/21 05:29:24;;;;;;;16.60;11.88;;;;;;;;;;5017662;28;20492;-74
2021/09/21 05:31:49;;;;;;;16.52;12.20;;;;;;;;;;5021948;28;20199;-75
2021/09/21 05:34:14;;;;;;;16.05;11.25;;;;;;;;;;5009908;28;20224;-74
2021/09/21 05:36:40;;;;;;;18.98;11.65;;;;;;;;;;5023562;28;20261;-75
2021/09/21 05:39:05;;;;;;;18.60;12.77;;;;;;;;;;5012715;28;20224;-75
2021/09/21 05:41:31;;;;;;;17.20;11.77;;;;;;;;;;5020607;28;20198;-74
2021/09/21 05:43:56;;;;;;;14.77;11.38;;;;;;;;;;5022423;28;20201;-75
2021/09/21 05:46:21;;;;;;;17.17;12.60;;;;;;;;;;5019811;28;20287;-75
2021/09/21 05:48:49;;;;;;;17.70;11.82;;;;;;;;;;5021642;28;20607;-75
2021/09/21 05:51:15;;;;;;;18.33;11.85;;;;;;;;;;5018377;28;20198;-75
2021/09/21 05:53:40;;;;;;;21.95;14.57;;;;;;;;;;5025299;28;20235;-75
2021/09/21 05:56:05;;;;;;;22.40;14.27;;;;;;;;;;5020060;28;20205;-74
2021/09/21 05:58:31;;;;;;;19.40;14.00;;;;;;;;;;5023457;28;20214;-74
2021/09/21 06:00:57;;;;;;;23.02;14.13;;;;;;;;;;5021647;28;20201;-74
2021/09/21 06:03:23;;;;;;;21.52;13.20;;;;;;;;;;5028370;28;20335;-74
2021/09/21 06:05:49;;;;;;;19.33;12.25;;;;;;;;;;5017127;28;20190;-74
2021/09/21 06:08:14;;;;;;;21.33;12.85;;;;;;;;;;5028059;28;20264;-75
2021/09/21 06:10:39;;;;;;;21.00;12.57;;;;;;;;;;5018587;28;20185;-74
2021/09/21 06:13:05;;;;;;;23.42;13.32;;;;;;;;;;5028910;28;20744;-75
2021/09/21 06:15:30;;;;;;;19.48;15.45;;;;;;;;;;5027704;28;20217;-75
2021/09/21 06:17:56;;;;;;;22.02;14.95;;;;;;;;;;5017962;28;20652;-74
2021/09/21 06:20:21;;;;;;;17.58;12.35;;;;;;;;;;5029512;28;20196;-74
2021/09/21 06:22:47;;;;;;;20.00;12.90;;;;;;;;;;5015756;28;20193;-74
2021/09/21 06:25:14;;;;;;;16.90;11.95;;;;;;;;;;5021862;28;20174;-73
2021/09/21 06:27:40;;;;;;;18.52;13.20;;;;;;;;;;5022846;28;20829;-74
2021/09/21 06:30:08;;;;;;;21.15;13.18;;;;;;;;;;5028958;28;20282;-74
2021/09/21 06:32:34;;;;;;;17.85;11.95;;;;;;;;;;5022433;28;20192;-74
2021/09/21 06:34:59;;;;;;;18.92;11.40;;;;;;;;;;5031139;28;20214;-74
2021/09/21 06:37:25;;;;;;;12.75;10.07;;;;;;;;;;5011317;28;20204;-74
2021/09/21 06:39:50;;;;;;;12.55;9.60;;;;;;;;;;5029816;28;20200;-75
2021/09/21 06:42:16;;;;;;;17.70;10.73;;;;;;;;;;5018265;28;20565;-73
2021/09/21 06:44:41;;;;;;;16.25;11.18;;;;;;;;;;5024474;28;20420;-74
2021/09/21 06:47:06;;;;;;;14.13;10.80;;;;;;;;;;5021720;28;20856;-73
2021/09/21 06:49:32;;;;;;;15.90;10.85;;;;;;;;;;5019998;28;20650;-73
2021/09/21 06:51:58;;;;;;;16.83;11.10;;;;;;;;;;5024107;28;20193;-74
2021/09/21 06:54:23;;;;;;;20.50;12.88;;;;;;;;;;5014193;28;20249;-74
2021/09/21 06:56:49;;;;;;;21.50;14.57;;;;;;;;;;5022894;28;20207;-73
2021/09/21 06:59:14;;;;;;;23.27;16.05;;;;;;;;;;5017745;28;20193;-73
2021/09/21 07:01:39;;;;;;;24.42;16.98;;;;;;;;;;5020702;28;20741;-73
2021/09/21 07:04:05;;;;;;;20.80;15.40;;;;;;;;;;5016412;28;20620;-75
2021/09/21 07:06:30;;;;;;;22.63;14.63;;;;;;;;;;5021607;28;20194;-74
2021/09/21 07:08:55;;;;;;;21.75;13.95;;;;;;;;;;5016687;28;21381;-74
2021/09/21 07:11:21;;;;;;;15.23;12.45;;;;;;;;;;5023212;28;20193;-73
2021/09/21 07:13:47;;;;;;;18.55;12.85;;;;;;;;;;5016522;28;20193;-73
2021/09/21 07:16:12;;;;;;;16.15;11.35;;;;;;;;;;5023516;28;20209;-73
2021/09/21 07:18:38;;;;;;;13.90;9.75;;;;;;;;;;5024305;28;20186;-73
2021/09/21 07:21:05;;;;;;;16.48;11.05;;;;;;;;;;5013391;28;20201;-74
2021/09/21 07:23:31;;;;;;;18.40;12.73;;;;;;;;;;5025805;28;20545;-72
2021/09/21 07:25:56;;;;;;;22.63;13.30;;;;;;;;;;5015997;28;20200;-74
2021/09/21 07:28:21;;;;;;;14.68;12.05;;;;;;;;;;5024858;28;20189;-74
2021/09/21 07:30:47;;;;;;;20.60;13.00;;;;;;;;;;5015453;28;20606;-73
2021/09/21 07:33:15;;;;;;;18.17;12.80;;;;;;;;;;5025255;28;20627;-74
2021/09/21 07:35:41;;;;;;;20.40;13.52;;;;;;;;;;5015827;28;20221;-75
2021/09/21 07:38:06;;;;;;;17.27;12.75;;;;;;;;;;5023547;28;20267;-74
2021/09/21 07:40:35;;;;;;;16.77;11.07;;;;;;;;;;5018250;28;20194;-74
2021/09/21 07:43:01;;;;;;;17.08;10.63;;;;;;;;;;5025836;28;20700;-74
2021/09/21 07:45:26;;;;;;;13.35;10.13;;;;;;;;;;5019707;28;20186;-74
2021/09/21 07:47:52;;;;;;;15.95;10.82;;;;;;;;;;5023028;28;20224;-74
2021/09/21 07:50:17;;;;;;;15.65;10.68;;;;;;;;;;5024649;28;20239;-74
2021/09/21 07:52:43;;;;;;;16.77;10.23;;;;;;;;;;5017695;28;20255;-74
2021/09/21 07:55:09;;;;;;;15.45;10.02;;;;;;;;;;5025056;28;20303;-74
2021/09/21 07:57:36;;;;;;;22.52;11.20;;;;;;;;;;5016785;28;20205;-73
2021/09/21 08:00:03;;;;;;;13.80;10.80;;;;;;;;;;5022599;28;20661;-74
2021/09/21 08:02:29;;;;;;;16.98;11.60;;;;;;;;;;5014828;28;21307;-73
2021/09/21 08:04:54;;;;;;;14.82;10.80;;;;;;;;;;5023667;28;20178;-73
2021/09/21 08:07:19;;;;;;;21.45;11.77;;;;;;;;;;5016563;28;20193;-73
2021/09/21 08:09:45;;;;;;;20.38;11.32;;;;;;;;;;5024049;28;20194;-72
2021/09/21 08:12:10;;;;;;;20.10;11.43;;;;;;;;;;5016532;28;20198;-73
2021/09/21 08:14:39;;;;;;;16.70;10.40;;;;;;;;;;5025946;28;20217;-73
2021/09/21 08:17:06;;;;;;;12.88;9.07;;;;;;;;;;5022420;28;20323;-73
2021/09/21 08:19:31;;;;;;;13.40;8.77;;;;;;;;;;5015019;28;20302;-73
2021/09/21 08:21:57;;;;;;;12.00;9.13;;;;;;;;;;5022831;28;20222;-74
2021/09/21 08:24:22;;;;;;;12.82;8.90;;;;;;;;;;5018358;28;20197;-73
2021/09/21 08:26:48;;;;;;;13.25;9.10;;;;;;;;;;5023317;28;20213;-73
2021/09/21 08:29:13;;;;;;;11.35;8.55;;;;;;;;;;5015713;28;20193;-74
2021/09/21 08:31:39;;;;;;;13.93;8.73;;;;;;;;;;5024123;28;20218;-73
2021/09/21 08:34:04;;;;;;;14.60;9.18;;;;;;;;;;5008683;28;20222;-73
2021/09/21 08:36:30;;;;;;;10.85;8.23;;;;;;;;;;5019977;28;20620;-74
2021/09/21 08:38:56;;;;;;;12.57;8.70;;;;;;;;;;5013856;28;20224;-74
2021/09/21 08:41:25;;;;;;;12.30;8.40;;;;;;;;;;5022910;28;20185;-74
2021/09/21 08:43:50;;;;;;;16.67;9.10;;;;;;;;;;5012592;28;20247;-74
2021/09/21 08:46:16;;;;;;;12.27;8.68;;;;;;;;;;5017000;28;20489;-73
2021/09/21 08:48:41;;;;;;;12.45;7.78;;;;;;;;;;5021361;28;20269;-73
2021/09/21 08:51:07;;;;;;;12.52;7.88;;;;;;;;;;5012761;28;21387;-73
2021/09/21 08:53:32;;;;;;;10.65;7.50;;;;;;;;;;5017663;28;20296;-72
2021/09/21 08:55:58;;;;;;;10.43;7.95;;;;;;;;;;5010504;28;20222;-72
2021/09/21 08:58:24;;;;;;;11.25;7.50;;;;;;;;;;4325930;28;10000769;-72
2021/09/21 09:00:50;;;;;;;10.82;7.90;;;;;;;;;;5013270;28;20359;-73
2021/09/21 09:03:15;;;;;;;9.32;7.28;;;;;;;;;;5019612;28;20226;-73
2021/09/21 09:05:43;;;;;;;12.02;7.30;;;;;;;;;;5012141;28;20540;-73
2021/09/21 09:08:08;;;;;;;10.25;6.45;;;;;;;;;;5018920;28;20188;-74
2021/09/21 09:10:33;;;;;;;9.80;6.55;;;;;;;;;;5014059;28;20686;-73
2021/09/21 09:12:59;;;;;;;9.77;6.95;;;;;;;;;;5021129;28;20197;-73
2021/09/21 09:15:26;;;;;;;11.35;6.72;;;;;;;;;;5013302;28;20209;-73
2021/09/21 09:18:01;;;;;;;9.35;6.25;;;;;;;;;;5021499;28;20189;-73
2021/09/21 09:20:39;;;;;;;12.02;6.65;;;;;;;;;;5020249;28;20593;-74
2021/09/21 09:23:07;;;;;;;8.65;5.68;;;;;;;;;;5024440;28;20713;-73
2021/09/21 09:25:39;;;;;;;9.55;5.57;;;;;;;;;;5021807;28;20193;-72
2021/09/21 09:28:04;;;;;;;7.95;5.35;;;;;;;;;;5014426;28;20201;-73
2021/09/21 09:30:30;;;;;;;9.65;5.85;;;;;;;;;;5022609;28;20614;-73
2021/09/21 09:32:59;;;;;;;8.65;4.85;;;;;;;;;;5008983;28;23295;-73
2021/09/21 09:35:36;;;;;;;10.43;5.30;;;;;;;;;;5019638;28;20222;-72
2021/09/21 09:38:08;;;;;;;7.28;5.32;;;;;;;;;;5012056;28;20518;-73
2021/09/21 09:40:49;;;;;;;10.02;5.63;;;;;;;;;;5018648;28;20548;-73
2021/09/21 09:43:16;;;;;;;9.27;4.70;;;;;;;;;;5011807;28;20189;-70
2021/09/21 09:45:45;;;;;;;8.38;4.18;;;;;;;;;;5019686;28;20273;-72
2021/09/21 09:48:14;;;;;;;6.03;4.38;;;;;;;;;;5010829;28;20611;-72
2021/09/21 09:50:42;;;;;;;6.38;4.10;;;;;;;;;;5019204;28;20228;-72
2021/09/21 09:53:19;;;;;;;7.28;4.95;;;;;;;;;;5009632;28;20612;-72
2021/09/21 09:55:58;;;;;;;5.60;4.30;;;;;;;;;;5017264;28;20234;-72
2021/09/21 09:58:25;;;;;;;4.40;4.00;;;;;;;;;;5010698;28;20267;-73
2021/09/21 10:00:54;;;;;;;6.30;4.13;;;;;;;;;;5017928;28;20193;-73
2021/09/21 10:03:21;;;;;;;6.38;4.57;;;;;;;;;;5007698;28;20904;-72
2021/09/21 10:05:46;;;;;;;6.45;4.53;;;;;;;;;;5017581;28;20563;-72
2021/09/21 10:08:12;;;;;;;9.40;4.50;;;;;;;;;;5012689;28;20182;-72
2021/09/21 10:10:40;;;;;;;8.57;4.82;;;;;;;;;;5016092;28;20557;-72
2021/09/21 10:13:12;;;;;;;5.28;4.32;;;;;;;;;;5020047;28;20493;-72
2021/09/21 10:15:39;;;;;;;6.60;4.28;;;;;;;;;;5009269;28;20215;-73
2021/09/21 10:18:04;;;;;;;5.53;4.03;;;;;;;;;;5018913;28;20248;-73
2021/09/21 10:20:36;;;;;;;6.18;4.00;;;;;;;;;;5008929;28;21724;-71
2021/09/21 10:23:06;;;;;;;4.43;3.35;;;;;;;;;;5019699;28;20186;-72
2021/09/21 10:25:34;;;;;;;4.78;3.00;;;;;;;;;;5010994;28;21212;-72
2021/09/21 10:28:01;;;;;;;3.63;2.58;;;;;;;;;;5015076;28;20224;-71
2021/09/21 10:30:31;;;;;;;5.82;3.05;;;;;;;;;;5013738;28;20209;-73
2021/09/21 10:32:58;;;;;;;4.05;3.10;;;;;;;;;;5022193;28;20717;-73
2021/09/21 10:35:31;;;;;;;6.40;3.08;;;;;;;;;;5014706;28;20691;-72
2021/09/21 10:38:07;;;;;;;4.75;2.90;;;;;;;;;;5021247;28;20200;-71
2021/09/21 10:40:39;;;;;;;4.05;2.80;;;;;;;;;;5013757;28;20276;-71
2021/09/21 10:43:25;;;;;;;4.15;3.03;;;;;;;;;;5022230;28;20247;-71
2021/09/21 10:45:52;;;;;;;5.90;3.25;;;;;;;;;;5014838;28;20196;-71
2021/09/21 10:48:21;;;;;;;5.07;3.33;;;;;;;;;;5021482;28;20626;-72
2021/09/21 10:50:57;;;;;;;5.68;3.20;;;;;;;;;;5014959;28;21417;-72
2021/09/21 10:53:24;;;;;;;7.13;3.85;;;;;;;;;;5022966;28;20674;-72
2021/09/21 10:56:02;;;;;;;5.43;3.30;;;;;;;;;;5020220;28;20240;-74
2021/09/21 10:58:28;;;;;;;4.10;2.72;;;;;;;;;;5018844;28;20209;-72
2021/09/21 11:00:55;;;;;;;6.25;3.63;;;;;;;;;;5026770;28;20186;-73
2021/09/21 11:03:23;;;;;;;8.65;3.80;;;;;;;;;;5017168;28;20275;-71
2021/09/21 11:05:48;;;;;;;4.78;3.58;;;;;;;;;;5024308;28;20189;-72
2021/09/21 11:08:14;;;;;;;8.65;3.67;;;;;;;;;;5011848;28;20564;-73
2021/09/21 11:10:49;;;;;;;5.18;3.70;;;;;;;;;;5022381;28;20198;-72
2021/09/21 11:13:18;;;;;;;6.55;4.43;;;;;;;;;;5013595;28;20604;-73
2021/09/21 11:15:46;;;;;;;5.80;3.88;;;;;;;;;;5024925;28;20209;-72
2021/09/21 11:18:14;;;;;;;6.15;3.85;;;;;;;;;;5014854;28;20332;-73
2021/09/21 11:20:50;;;;;;;4.60;3.72;;;;;;;;;;5021945;28;20957;-72
2021/09/21 11:23:18;;;;;;;5.67;3.97;;;;;;;;;;4668307;28;10000521;-72
2021/09/21 11:25:45;;;;;;;6.50;4.80;;;;;;;;;;5024061;28;20650;-73
2021/09/21 11:28:10;;;;;;;6.50;4.05;;;;;;;;;;5012684;28;20197;-71
2021/09/21 11:30:36;;;;;;;4.40;3.47;;;;;;;;;;5021058;28;20645;-71
2021/09/21 11:33:22;;;;;;;9.38;4.43;;;;;;;;;;5014261;28;20204;-72
2021/09/21 11:35:50;;;;;;;6.47;4.85;;;;;;;;;;5021054;28;20276;-71
2021/09/21 11:38:17;;;;;;;4.93;3.75;;;;;;;;;;5013589;28;20189;-71
2021/09/21 11:40:43;;;;;;;7.25;4.07;;;;;;;;;;5025387;28;20568;-72
2021/09/21 11:43:13;;;;;;;4.60;3.53;;;;;;;;;;5017151;28;20193;-72
2021/09/21 11:45:40;;;;;;;3.17;2.55;;;;;;;;;;5019930;28;20193;-71
2021/09/21 11:48:09;;;;;;;3.42;2.83;;;;;;;;;;5022146;28;20192;-71
2021/09/21 11:50:35;;;;;;;4.03;2.70;;;;;;;;;;5013800;28;20198;-71
2021/09/21 11:53:03;;;;;;;3.10;2.50;;;;;;;;;;5019486;28;20200;-71
2021/09/21 11:55:33;;;;;;;4.68;2.83;;;;;;;;;;5012223;28;20685;-71
2021/09/21 11:58:00;;;;;;;4.25;2.88;;;;;;;;;;5022913;28;20197;-71
2021/09/21 12:00:30;;;;;;;3.85;2.83;;;;;;;;;;5013461;28;20197;-71
2021/09/21 12:02:58;;;;;;;4.05;2.53;;;;;;;;;;5020098;28;21834;-73
2021/09/21 12:05:25;;;;;;;2.65;2.13;;;;;;;;;;5010831;28;20190;-72
2021/09/21 12:07:51;;;;;;;2.17;1.83;;;;;;;;;;5019347;28;20191;-71
2021/09/21 12:10:17;;;;;;;6.30;2.22;;;;;;;;;;5008465;28;20197;-73
2021/09/21 12:12:43;;;;;;;4.53;2.17;;;;;;;;;;5025157;28;20676;-73
2021/09/21 12:15:11;;;;;;;3.20;2.50;;;;;;;;;;5011547;28;20217;-71
2021/09/21 12:17:42;;;;;;;3.33;2.38;;;;;;;;;;5022414;28;20190;-71
2021/09/21 12:20:10;;;;;;;2.92;2.42;;;;;;;;;;5018475;28;20199;-72
2021/09/21 12:22:35;;;;;;;3.58;2.20;;;;;;;;;;5013070;28;20283;-73
2021/09/21 12:25:08;;;;;;;2.25;2.00;;;;;;;;;;5022290;28;20701;-72
2021/09/21 12:27:36;;;;;;;3.75;2.50;;;;;;;;;;5014412;28;20197;-71
2021/09/21 12:30:06;;;;;;;2.05;1.85;;;;;;;;;;5024825;28;20190;-71
2021/09/21 12:32:31;;;;;;;2.92;1.50;;;;;;;;;;5017264;28;20189;-71
2021/09/21 12:35:07;;;;;;;2.28;1.35;;;;;;;;;;5026294;28;20734;-71
2021/09/21 12:37:43;;;;;;;2.65;1.40;;;;;;;;;;5015179;28;20609;-73
2021/09/21 12:40:10;;;;;;;2.53;1.75;;;;;;;;;;5024103;28;20279;-72
2021/09/21 12:42:36;;;;;;;1.95;1.48;;;;;;;;;;5018564;28;20561;-73
2021/09/21 12:45:04;;;;;;;1.95;1.60;;;;;;;;;;5027131;28;20264;-72
2021/09/21 12:47:30;;;;;;;2.17;1.73;;;;;;;;;;5017180;28;20194;-71
2021/09/21 12:49:57;;;;;;;2.78;1.70;;;;;;;;;;5022939;28;20194;-71
2021/09/21 12:52:30;;;;;;;1.67;1.52;;;;;;;;;;5020020;28;20319;-72
2021/09/21 12:54:56;;;;;;;3.22;1.50;;;;;;;;;;5026098;28;20296;-73
2021/09/21 12:57:21;;;;;;;1.92;1.40;;;;;;;;;;5019948;28;20198;-73
2021/09/21 12:59:52;;;;;;;2.38;1.15;;;;;;;;;;5025187;28;20212;-72
2021/09/21 13:02:17;;;;;;;1.58;1.40;;;;;;;;;;5028944;28;20230;-70
2021/09/21 13:04:42;;;;;;;2.75;1.25;;;;;;;;;;5015981;28;20259;-71
2021/09/21 13:07:08;;;;;;;2.00;1.23;;;;;;;;;;5028184;28;20592;-71
2021/09/21 13:09:33;;;;;;;1.38;1.23;;;;;;;;;;5017091;28;20198;-72
2021/09/21 13:11:59;;;;;;;2.85;1.55;;;;;;;;;;4674981;28;9999903;-71
2021/09/21 13:14:24;;;;;;;2.08;1.38;;;;;;;;;;5014950;28;20193;-71
2021/09/21 13:16:49;;;;;;;2.28;1.50;;;;;;;;;;5026047;28;21813;-70
2021/09/21 13:19:15;;;;;;;3.30;1.42;;;;;;;;;;5013477;28;20211;-71
2021/09/21 13:21:40;;;;;;;2.85;1.20;;;;;;;;;;5032531;28;20185;-71
2021/09/21 13:24:06;;;;;;;1.98;1.17;;;;;;;;;;5014352;28;20276;-71
2021/09/21 13:26:31;;;;;;;2.65;1.55;;;;;;;;;;5025966;28;20178;-70
2021/09/21 13:28:57;;;;;;;3.60;1.13;;;;;;;;;;5013621;28;21150;-71
2021/09/21 13:31:22;;;;;;;1.77;1.23;;;;;;;;;;5021183;28;20213;-73
2021/09/21 13:33:50;;;;;;;4.18;2.08;;;;;;;;;;5020733;28;20237;-71
2021/09/21 13:36:17;;;;;;;1.50;1.20;;;;;;;;;;5012460;28;20613;-71
2021/09/21 13:38:43;;;;;;;3.03;1.40;;;;;;;;;;5024193;28;20311;-71
2021/09/21 13:41:08;;;;;;;1.92;1.42;;;;;;;;;;5014260;28;20693;-71
2021/09/21 13:43:34;;;;;;;2.00;1.42;;;;;;;;;;5021984;28;20196;-71
2021/09/21 13:45:59;;;;;;;3.53;1.50;;;;;;;;;;5016177;28;20196;-71
2021/09/21 13:48:25;;;;;;;2.38;2.10;;;;;;;;;;5022285;28;20194;-71
2021/09/21 13:50:50;;;;;;;2.10;1.90;;;;;;;;;;5011774;28;20326;-71
2021/09/21 13:53:15;;;;;;;4.30;1.58;;;;;;;;;;5022827;28;20236;-70
2021/09/21 13:55:41;;;;;;;2.83;1.42;;;;;;;;;;5013220;28;20237;-74
2021/09/21 13:58:06;;;;;;;2.55;1.60;;;;;;;;;;5020279;28;20210;-71
2021/09/21 14:00:32;;;;;;;4.35;1.35;;;;;;;;;;5013529;28;20294;-72
2021/09/21 14:02:57;;;;;;;3.80;1.83;;;;;;;;;;5020341;28;20244;-74
2021/09/21 14:05:24;;;;;;;3.10;2.00;;;;;;;;;;5022193;28;20220;-72
2021/09/21 14:07:50;;;;;;;1.73;1.50;;;;;;;;;;5014822;28;20184;-72
2021/09/21 14:10:16;;;;;;;2.17;1.58;;;;;;;;;;5020187;28;20194;-74
2021/09/21 14:12:42;;;;;;;3.03;1.50;;;;;;;;;;5013925;28;20276;-73
2021/09/21 14:15:10;;;;;;;2.20;1.30;;;;;;;;;;5021598;28;20205;-72
2021/09/21 14:17:38;;;;;;;3.83;1.50;;;;;;;;;;5013216;28;20201;-73
2021/09/21 14:20:05;;;;;;;2.58;1.65;;;;;;;;;;5021364;28;20186;-73
2021/09/21 14:22:31;;;;;;;1.40;1.30;;;;;;;;;;5015026;28;20677;-73
2021/09/21 14:24:56;;;;;;;3.80;1.65;;;;;;;;;;5020219;28;20181;-74
2021/09/21 14:27:26;;;;;;;2.10;1.10;;;;;;;;;;5011358;28;20190;-73
2021/09/21 14:29:51;;;;;;;1.88;1.30;;;;;;;;;;5020703;28;20240;-73
2021/09/21 14:32:17;;;;;;;1.90;1.48;;;;;;;;;;5013246;28;20317;-72
2021/09/21 14:34:42;;;;;;;3.50;1.63;;;;;;;;;;5019359;28;20695;-72